SBPK/PET METAR and TAF weather

Enter ICAO airport designator
Station Type Date Time Source
SBPK METAR 2020/03/29 12:00 UTC NOAA

SBPK 291200Z 33002KT 9999 SCT025 OVC100 24/21 Q1016


Station Type Date Time Source
SBPK Decoded METAR 2020/03/29 12:00 UTC NOAA

Pelotas, Brazil (SBPK) 31-52S 052-21W 13M
Mar 29, 2020 - 08:00 AM EDT / 2020.03.29 1200 UTC
Wind: from the NNW (330 degrees) at 2 MPH (2 KT):0
Visibility: greater than 7 mile(s):0
Sky conditions: overcast
Temperature: 75 F (24 C)
Dew Point: 69 F (21 C)
Relative Humidity: 83%
Pressure (altimeter): 30.00 in. Hg (1016 hPa)
ob: SBPK 291200Z 33002KT 9999 SCT025 OVC100 24/21 Q1016
cycle: 12

Station Type Date Time Source
SBPK TAF 2020/03/29 12:39 UTC NOAA

TAF SBPK 290900Z 2912/3012 06010KT 9999 SCT030 TX31/2918Z TN21/3008Z
RMK PEB

Example: see airport list